Date,TemperatureHighF,TemperatureAvgF,TemperatureLowF,DewpointHighF,DewpointAvgF,DewpointLowF,HumidityHigh,HumidityAvg,HumidityLow,PressureMaxIn,PressureMinIn,WindSpeedMaxMPH,WindSpeedAvgMPH,GustSpeedMaxMPH,PrecipitationSumIn
2013-6-1,74.3,61.4,51.3,62.2,54.2,43.4,93,78,53,30.30,29.91,3,1,9,0.07
2013-6-2,72.5,58.3,48.4,45.8,42.4,39.2,80,58,32,30.44,30.29,3,1,8,0.00
2013-6-3,74.8,61.1,46.4,53.8,45.4,39.4,96,60,31,30.42,30.31,2,1,8,0.00
2013-6-4,64.6,59.3,53.8,55.3,50.0,42.4,97,72,54,30.44,30.34,4,2,11,0.02
2013-6-5,58.1,55.5,53.2,58.1,54.6,52.2,100,97,91,30.40,30.30,2,1,8,0.05
2013-6-6,57.2,52.9,49.3,53.5,51.5,49.0,100,95,85,30.39,30.31,2,0,4,0.01
2013-6-7,64.8,57.9,52.2,56.8,52.8,51.5,100,84,66,30.40,30.27,1,0,4,0.00
2013-6-8,76.8,64.7,53.8,59.6,54.6,52.1,96,72,49,30.28,30.25,3,1,8,0.00
2013-6-9,67.6,59.7,56.1,64.1,57.5,53.4,100,92,71,30.26,30.14,5,2,15,0.51
2013-6-10,82.8,66.0,57.9,65.1,61.1,57.7,100,86,50,30.22,30.16,2,0,5,0.00
2013-6-11,77.7,67.3,55.9,68.4,63.7,55.7,100,89,68,30.25,30.17,2,0,6,0.00
2013-6-12,79.0,65.8,59.4,68.9,60.8,53.7,100,85,56,30.29,30.08,5,1,10,0.59
2013-6-13,83.8,69.7,55.9,59.6,54.6,50.2,85,60,41,30.45,30.29,2,1,7,0.00
2013-6-14,80.1,70.0,57.7,61.7,57.8,51.4,85,66,52,30.46,30.24,4,1,12,0.00
2013-6-15,82.8,70.1,62.6,71.9,65.1,60.8,100,85,67,30.30,30.20,2,0,7,0.44
2013-6-16,88.3,72.1,55.6,61.6,54.9,46.1,100,62,24,30.27,30.21,9,1,21,0.00
2013-6-17,86.5,72.5,59.5,62.8,58.7,54.1,93,64,35,30.31,29.77,4,1,9,0.00
2013-6-18,79.9,67.9,57.2,62.8,55.6,50.4,83,66,48,29.98,29.79,3,1,8,0.44
2013-6-19,89.1,70.9,59.0,63.8,58.5,53.7,86,67,40,29.94,29.85,2,1,7,0.00
2013-6-20,90.0,80.5,68.5,73.2,65.0,60.5,83,61,43,29.90,29.77,2,0,9,0.02
2013-6-21,82.6,72.6,63.9,69.3,66.1,60.9,100,82,59,30.00,29.63,20,2,98,1.20
2013-6-22,85.8,71.4,65.3,73.3,67.9,65.0,100,90,61,29.88,29.73,4,1,10,0.40
2013-6-23,85.8,75.0,68.2,71.3,67.8,63.3,100,80,53,29.76,29.57,4,1,9,0.33
2013-6-24,93.6,74.6,63.5,73.9,67.6,62.7,100,81,44,29.80,29.69,2,0,8,0.04
2013-6-25,88.2,76.7,64.6,73.3,68.4,63.1,97,77,54,29.73,29.61,3,1,9,0.00
2013-6-26,92.3,80.1,69.8,81.3,71.5,65.1,100,77,46,29.72,29.56,4,1,14,0.20
2013-6-27,89.1,78.8,68.9,68.7,62.1,55.7,90,60,34,29.73,29.67,5,2,14,0.00
2013-6-28,80.8,71.2,64.6,68.0,61.5,58.1,95,72,55,29.69,29.64,4,2,11,0.02
2013-6-29,80.1,69.2,61.5,68.6,59.1,51.5,100,73,42,29.88,29.63,3,1,7,0.46
2013-6-30,88.5,71.1,55.6,60.8,55.1,50.4,92,61,32,30.01,29.88,2,0,7,0.00